Time;durP1;ratioP1;P1;durP2;ratioP2;P2;SDS_P1;SDS_P2;PMS_P1;PMS_P2;Temp;Humidity;BMP_temperature;BMP_pressure;BME280_temperature;BME280_humidity;BME280_pressure;Samples;Min_cycle;Max_cycle;Signal;HPM_P1;HPM_P2
2020/12/14 00:01:35;;;;;;;53.98;24.18;;;;;;;0.34;81.57;100246.75;1796525;79;21014;-61
2020/12/14 00:04:02;;;;;;;40.92;18.17;;;;;;;0.34;81.61;100245.44;1798738;79;21006;-62
2020/12/14 00:06:30;;;;;;;44.18;22.25;;;;;;;0.39;81.58;100252.88;1796784;79;21066;-61
2020/12/14 00:08:58;;;;;;;52.55;24.25;;;;;;;0.42;81.51;100252.56;1794756;79;21383;-63
2020/12/14 00:11:36;;;;;;;47.58;22.90;;;;;;;0.44;81.35;100250.12;1794363;79;21180;-61
2020/12/14 00:14:03;;;;;;;47.43;22.90;;;;;;;0.39;81.39;100258.97;1793498;79;21085;-62
2020/12/14 00:16:31;;;;;;;49.10;24.02;;;;;;;0.35;81.36;100251.02;1797363;79;20931;-60
2020/12/14 00:18:59;;;;;;;51.13;20.52;;;;;;;0.31;81.55;100247.88;1797032;79;21104;-60
2020/12/14 00:21:26;;;;;;;46.55;22.15;;;;;;;0.31;81.56;100249.20;1797093;79;21199;-60
2020/12/14 00:23:54;;;;;;;46.33;22.58;;;;;;;0.28;81.61;100245.55;1789862;79;21019;-59
2020/12/14 00:26:22;;;;;;;51.45;24.25;;;;;;;0.29;81.72;100245.05;1798986;79;21042;-60
2020/12/14 00:28:49;;;;;;;41.50;20.48;;;;;;;0.30;81.72;100248.03;1795177;79;20979;-64
2020/12/14 00:31:17;;;;;;;47.65;21.73;;;;;;;0.30;81.70;100244.89;1796718;79;21102;-60
2020/12/14 00:33:46;;;;;;;49.63;24.07;;;;;;;0.31;81.74;100248.34;1790404;79;21380;-62
2020/12/14 00:36:13;;;;;;;49.05;21.82;;;;;;;0.37;81.75;100249.08;1794173;79;20951;-60
2020/12/14 00:38:41;;;;;;;50.83;24.32;;;;;;;0.40;81.58;100241.32;1793037;79;20943;-62
2020/12/14 00:41:17;;;;;;;42.95;21.48;;;;;;;0.39;81.57;100244.97;1792947;79;21043;-63
2020/12/14 00:43:46;;;;;;;49.18;22.50;;;;;;;0.38;81.53;100245.94;1773212;80;21208;-61
2020/12/14 00:46:15;;;;;;;49.33;23.80;;;;;;;0.36;81.57;100247.41;1773590;80;21193;-61
2020/12/14 00:48:43;;;;;;;58.83;25.97;;;;;;;0.35;81.60;100240.47;1775837;80;21080;-62
2020/12/14 00:51:11;;;;;;;44.87;20.80;;;;;;;0.35;81.64;100239.16;1775707;79;20974;-61
2020/12/14 00:53:39;;;;;;;44.42;22.10;;;;;;;0.36;81.63;100236.86;1785250;79;21053;-61
2020/12/14 00:56:07;;;;;;;52.95;24.70;;;;;;;0.39;81.55;100237.05;1794417;79;21150;-61
2020/12/14 00:58:34;;;;;;;49.10;24.37;;;;;;;0.38;81.53;100236.70;1797190;79;21373;-64
2020/12/14 01:01:02;;;;;;;53.98;23.07;;;;;;;0.33;81.57;100235.35;1795925;78;21050;-61
2020/12/14 01:03:30;;;;;;;45.70;22.45;;;;;;;0.32;81.63;100239.47;1787245;79;21100;-60
2020/12/14 01:05:57;;;;;;;49.00;22.48;;;;;;;0.37;81.51;100240.31;1793565;79;20927;-59
2020/12/14 01:08:25;;;;;;;51.28;23.90;;;;;;;0.32;81.55;100231.55;1798151;79;21159;-61
2020/12/14 01:10:52;;;;;;;52.10;23.92;;;;;;;0.27;81.63;100240.44;1799893;79;22254;-62
2020/12/14 01:13:20;;;;;;;43.10;20.95;;;;;;;0.23;81.68;100234.63;1797130;79;20943;-61
2020/12/14 01:15:47;;;;;;;48.00;22.75;;;;;;;0.23;81.78;100228.53;1795389;79;21085;-60
2020/12/14 01:18:15;;;;;;;54.08;25.02;;;;;;;0.22;81.83;100237.41;1786393;79;21033;-62
2020/12/14 01:20:43;;;;;;;47.40;20.63;;;;;;;0.20;81.88;100223.57;1799099;79;21074;-62
2020/12/14 01:23:11;;;;;;;36.90;20.00;;;;;;;0.16;82.02;100230.47;1796624;79;21376;-61
2020/12/14 01:25:39;;;;;;;45.45;21.20;;;;;;;0.16;82.00;100225.67;1797462;79;21041;-60
2020/12/14 01:28:06;;;;;;;39.83;19.92;;;;;;;0.12;82.10;100227.80;1794263;79;21061;-61
2020/12/14 01:30:34;;;;;;;42.35;20.65;;;;;;;0.15;82.12;100231.94;1796335;79;21009;-61
2020/12/14 01:33:02;;;;;;;45.57;19.60;;;;;;;0.19;82.08;100231.13;1796952;77;21305;-62
2020/12/14 01:35:30;;;;;;;40.88;19.57;;;;;;;0.21;82.02;100230.00;1789711;79;23599;-60
2020/12/14 01:37:57;;;;;;;45.60;22.30;;;;;;;0.23;81.90;100227.22;1796223;79;21002;-60
2020/12/14 01:40:25;;;;;;;44.95;20.75;;;;;;;0.20;81.93;100223.06;1790244;79;21105;-61
2020/12/14 01:42:53;;;;;;;34.00;17.37;;;;;;;0.22;81.87;100230.82;1793706;79;21029;-61
2020/12/14 01:45:21;;;;;;;33.98;17.73;;;;;;;0.22;81.78;100228.19;1796795;79;21092;-61
2020/12/14 01:47:49;;;;;;;39.20;20.55;;;;;;;0.21;81.78;100230.48;1794820;79;21355;-61
2020/12/14 01:50:17;;;;;;;32.67;17.12;;;;;;;0.17;81.88;100232.10;1798398;79;21686;-61
2020/12/14 01:52:46;;;;;;;33.10;17.30;;;;;;;0.20;81.73;100230.16;1797406;79;21042;-61
2020/12/14 01:55:18;;;;;;;34.98;18.23;;;;;;;0.17;81.78;100228.15;1797698;79;21090;-60
2020/12/14 01:57:45;;;;;;;30.95;15.60;;;;;;;0.15;81.84;100226.17;1797946;79;21113;-61
2020/12/14 02:00:13;;;;;;;39.65;19.67;;;;;;;0.18;81.94;100227.67;1797084;79;21345;-60
2020/12/14 02:02:40;;;;;;;38.98;18.42;;;;;;;0.23;81.84;100218.80;1796190;79;21105;-61
2020/12/14 02:05:08;;;;;;;41.63;19.67;;;;;;;0.24;81.62;100215.69;1796496;79;21537;-61
2020/12/14 02:07:35;;;;;;;41.42;19.15;;;;;;;0.21;81.71;100221.25;1796562;79;21100;-61
2020/12/14 02:10:03;;;;;;;40.12;19.45;;;;;;;0.21;81.73;100222.09;1798255;79;21650;-61
2020/12/14 02:12:31;;;;;;;33.70;17.60;;;;;;;0.25;81.63;100221.28;1785475;79;21374;-61
2020/12/14 02:14:59;;;;;;;34.35;17.70;;;;;;;0.19;81.67;100216.13;1782633;79;20912;-62
2020/12/14 02:17:26;;;;;;;33.60;17.75;;;;;;;0.18;81.67;100213.17;1781883;79;20976;-62
2020/12/14 02:19:55;;;;;;;33.48;17.12;;;;;;;0.19;81.70;100219.27;1783385;79;21035;-61
2020/12/14 02:22:24;;;;;;;30.88;15.93;;;;;;;0.21;81.59;100212.02;1778601;79;21172;-61
2020/12/14 02:25:00;;;;;;;27.75;15.35;;;;;;;0.21;81.41;100208.91;1781056;79;22254;-63
2020/12/14 02:27:29;;;;;;;35.08;17.05;;;;;;;0.15;81.53;100199.80;1777798;79;21038;-62
2020/12/14 02:29:56;;;;;;;28.67;15.28;;;;;;;0.14;81.61;100208.69;1779610;79;20920;-62
2020/12/14 02:32:25;;;;;;;27.93;14.95;;;;;;;0.08;81.73;100202.72;1782262;79;21113;-62
2020/12/14 02:34:53;;;;;;;;;;;;;;;-0.01;81.87;100207.09;1787027;79;21165;-63
2020/12/14 02:37:24;;;;;;;30.00;16.60;;;;;;;0.00;81.93;100198.72;1778063;79;22190;-64
2020/12/14 02:39:51;;;;;;;28.80;14.25;;;;;;;-0.02;82.05;100198.84;1783888;79;21473;-63
2020/12/14 02:42:21;;;;;;;27.17;15.58;;;;;;;0.05;82.03;100210.12;1783561;79;20939;-60
2020/12/14 02:44:48;;;;;;;25.95;14.73;;;;;;;0.09;81.97;100208.33;1782779;79;21611;-61
2020/12/14 02:47:16;;;;;;;27.98;15.18;;;;;;;0.08;82.00;100215.08;1782434;79;21117;-63
2020/12/14 02:49:45;;;;;;;26.90;12.57;;;;;;;0.07;82.01;100213.41;1782837;79;21194;-61
2020/12/14 02:52:13;;;;;;;22.45;12.78;;;;;;;0.08;82.00;100211.94;1776740;79;21003;-61
2020/12/14 02:54:42;;;;;;;;;;;;;;;0.09;81.90;100204.85;1784658;79;20959;-62
2020/12/14 02:57:10;;;;;;;23.57;13.03;;;;;;;0.10;81.82;100218.38;1779640;79;20542;-62
2020/12/14 02:59:37;;;;;;;23.42;13.48;;;;;;;0.10;81.78;100222.33;1784647;79;21059;-62
2020/12/14 03:02:05;;;;;;;27.93;13.58;;;;;;;0.09;81.75;100214.08;1783897;79;21341;-61
2020/12/14 03:04:33;;;;;;;25.65;14.40;;;;;;;0.06;81.85;100223.14;1781621;79;21152;-62
2020/12/14 03:07:00;;;;;;;28.35;15.18;;;;;;;0.02;81.99;100223.11;1782662;79;21533;-62
2020/12/14 03:09:28;;;;;;;27.42;13.00;;;;;;;-0.02;82.12;100223.06;1782239;79;21082;-62
2020/12/14 03:12:00;;;;;;;23.75;13.03;;;;;;;-0.01;82.20;100216.33;1782238;79;21066;-62
2020/12/14 03:14:28;;;;;;;22.52;13.75;;;;;;;0.04;82.07;100225.09;1780994;79;21314;-62
2020/12/14 03:17:00;;;;;;;26.05;14.50;;;;;;;0.00;82.09;100221.13;1782447;79;21098;-62
2020/12/14 03:19:28;;;;;;;23.12;12.43;;;;;;;-0.03;82.14;100224.89;1782345;79;20979;-61
2020/12/14 03:21:56;;;;;;;23.35;13.32;;;;;;;-0.01;82.12;100226.05;1771867;79;21164;-61
2020/12/14 03:24:24;;;;;;;35.17;16.40;;;;;;;-0.01;82.13;100225.55;1784135;79;21149;-61
2020/12/14 03:26:51;;;;;;;26.35;14.65;;;;;;;0.03;82.20;100227.88;1783334;79;21133;-62
2020/12/14 03:29:19;;;;;;;18.73;11.48;;;;;;;0.07;82.09;100231.37;1777558;79;21480;-63
2020/12/14 03:31:47;;;;;;;24.40;12.68;;;;;;;0.06;81.87;100235.01;1782434;79;21110;-63
2020/12/14 03:34:15;;;;;;;20.62;12.07;;;;;;;0.04;82.00;100242.22;1778563;79;21097;-62
2020/12/14 03:36:42;;;;;;;22.87;11.88;;;;;;;0.09;82.09;100235.17;1782454;79;21161;-62
2020/12/14 03:39:10;;;;;;;20.32;11.12;;;;;;;0.20;81.80;100249.44;1772984;79;21213;-61
2020/12/14 03:41:38;;;;;;;27.90;13.60;;;;;;;0.21;81.45;100247.61;1779869;79;20916;-61
2020/12/14 03:44:05;;;;;;;22.40;12.37;;;;;;;0.16;81.54;100246.29;1779658;79;21113;-61
2020/12/14 03:46:35;;;;;;;21.10;11.93;;;;;;;0.15;81.51;100250.40;1781729;79;21148;-61
2020/12/14 03:49:03;;;;;;;20.45;11.40;;;;;;;0.13;81.45;100246.60;1777812;78;21146;-60
2020/12/14 03:51:31;;;;;;;24.80;13.65;;;;;;;0.13;81.49;100249.70;1783731;78;21368;-60
2020/12/14 03:53:58;;;;;;;25.48;13.65;;;;;;;0.11;81.58;100255.13;1782928;79;21200;-61
2020/12/14 03:56:26;;;;;;;21.65;12.50;;;;;;;0.13;81.64;100255.83;1783752;79;21581;-61
2020/12/14 03:58:54;;;;;;;22.80;12.28;;;;;;;0.19;81.66;100252.23;1781933;79;21129;-61
2020/12/14 04:01:23;;;;;;;23.90;12.60;;;;;;;0.22;81.49;100253.23;1784573;78;20908;-61
2020/12/14 04:03:52;;;;;;;28.05;15.60;;;;;;;0.22;81.54;100254.08;1782565;79;21209;-62
2020/12/14 04:06:25;;;;;;;27.32;14.03;;;;;;;0.26;81.57;100251.45;1781549;79;21161;-62
2020/12/14 04:08:54;;;;;;;21.77;11.65;;;;;;;0.32;81.46;100262.73;1779350;79;21093;-61
2020/12/14 04:11:22;;;;;;;19.42;11.90;;;;;;;0.33;81.27;100254.31;1779697;79;21192;-62
2020/12/14 04:13:50;;;;;;;23.62;12.73;;;;;;;0.32;81.23;100252.65;1777443;79;21548;-62
2020/12/14 04:16:18;;;;;;;24.40;13.70;;;;;;;0.35;81.27;100257.61;1776939;79;21453;-61
2020/12/14 04:18:49;;;;;;;24.35;12.43;;;;;;;0.40;81.12;100255.83;1783868;79;21599;-61
2020/12/14 04:21:17;;;;;;;20.95;12.35;;;;;;;0.39;80.97;100254.20;1780653;79;21031;-61
2020/12/14 04:23:45;;;;;;;20.80;12.40;;;;;;;0.36;80.92;100261.09;1784158;79;21027;-62
2020/12/14 04:26:14;;;;;;;21.55;13.03;;;;;;;0.33;80.93;100256.95;1782791;79;21078;-61
2020/12/14 04:28:42;;;;;;;24.75;12.82;;;;;;;0.33;80.92;100260.41;1782208;78;21247;-62
2020/12/14 04:31:09;;;;;;;20.57;11.57;;;;;;;0.32;80.69;100265.37;1780916;79;21030;-62
2020/12/14 04:33:38;;;;;;;23.98;12.30;;;;;;;0.27;80.63;100264.98;1785014;79;21002;-61
2020/12/14 04:36:06;;;;;;;22.45;13.60;;;;;;;0.22;80.65;100263.31;1779024;79;21098;-61
2020/12/14 04:38:34;;;;;;;30.52;14.38;;;;;;;0.19;80.71;100262.77;1767812;79;21165;-62
2020/12/14 04:41:03;;;;;;;30.97;16.17;;;;;;;0.15;80.88;100263.08;1762308;81;21200;-62
2020/12/14 04:43:31;;;;;;;27.73;15.18;;;;;;;0.15;81.05;100263.58;1773594;79;21552;-61
2020/12/14 04:46:03;;;;;;;28.70;16.07;;;;;;;0.18;80.98;100269.87;1778245;79;21042;-62
2020/12/14 04:48:31;;;;;;;25.25;13.70;;;;;;;0.15;81.06;100261.77;1773846;79;21023;-62
2020/12/14 04:50:59;;;;;;;22.67;12.90;;;;;;;0.19;81.23;100270.68;1784277;78;21067;-61
2020/12/14 04:53:27;;;;;;;22.85;13.28;;;;;;;0.23;81.05;100268.91;1780680;79;21362;-61
2020/12/14 04:55:56;;;;;;;21.48;12.40;;;;;;;0.22;81.09;100272.54;1777251;79;21196;-60
2020/12/14 04:58:23;;;;;;;19.75;11.35;;;;;;;0.20;81.08;100274.48;1758929;79;21022;-61
2020/12/14 05:00:51;;;;;;;16.65;10.30;;;;;;;0.20;81.00;100270.53;1784146;79;21142;-62
2020/12/14 05:03:19;;;;;;;17.00;8.53;;;;;;;0.16;81.10;100267.85;1784769;79;20903;-62
2020/12/14 05:05:56;;;;;;;19.60;11.43;;;;;;;0.17;81.03;100264.25;1782379;78;21194;-63
2020/12/14 05:08:31;;;;;;;21.52;12.43;;;;;;;0.23;81.03;100268.09;1811710;78;22784;-62
2020/12/14 05:11:01;;;;;;;19.60;12.53;;;;;;;0.17;81.04;100272.16;1800125;79;20997;-62
2020/12/14 05:13:28;;;;;;;19.57;11.88;;;;;;;0.16;81.02;100270.02;1798025;79;21387;-62
2020/12/14 05:15:57;;;;;;;21.57;12.03;;;;;;;0.15;81.06;100272.31;1799858;79;21571;-61
2020/12/14 05:18:26;;;;;;;25.30;14.43;;;;;;;0.14;81.13;100273.28;1768407;79;21147;-63
2020/12/14 05:21:03;;;;;;;;;;;;;;;0.13;81.19;100274.28;1803003;79;21034;-62
2020/12/14 05:23:32;;;;;;;22.50;12.10;;;;;;;0.15;81.16;100276.77;1800056;79;20128;-62
2020/12/14 05:26:07;;;;;;;29.42;13.38;;;;;;;0.15;81.22;100282.04;1801248;79;21432;-62
2020/12/14 05:28:35;;;;;;;24.80;12.35;;;;;;;0.18;81.26;100279.09;1795416;79;20994;-63
2020/12/14 05:31:03;;;;;;;24.55;13.75;;;;;;;0.25;81.25;100286.73;1793533;79;21061;-61
2020/12/14 05:33:32;;;;;;;19.30;10.85;;;;;;;0.31;81.08;100280.00;1790733;79;21172;-62
2020/12/14 05:35:59;;;;;;;25.02;14.03;;;;;;;0.30;80.89;100283.63;1782688;80;21049;-63
2020/12/14 05:38:31;;;;;;;22.50;12.65;;;;;;;0.24;80.91;100279.80;1782329;80;21372;-63
2020/12/14 05:41:02;;;;;;;24.20;12.73;;;;;;;0.21;80.95;100281.89;1779858;80;20985;-63
2020/12/14 05:43:32;;;;;;;20.10;11.30;;;;;;;0.19;80.99;100289.14;1778971;80;21096;-61
2020/12/14 05:46:13;;;;;;;23.05;13.32;;;;;;;0.13;81.01;100288.78;1782502;80;21231;-63
2020/12/14 05:48:49;;;;;;;22.75;12.50;;;;;;;0.14;81.06;100293.05;1829402;76;22755;-66
2020/12/14 05:51:16;;;;;;;26.80;14.35;;;;;;;0.07;81.11;100294.64;1799357;79;21460;-62
2020/12/14 05:53:54;;;;;;;20.23;11.08;;;;;;;0.07;81.18;100302.55;1798053;79;21445;-61
2020/12/14 05:56:22;;;;;;;21.47;10.87;;;;;;;0.11;81.14;100313.13;1801240;79;21010;-61
2020/12/14 05:58:51;;;;;;;26.50;14.35;;;;;;;0.11;81.22;100303.91;1794293;79;21096;-62
2020/12/14 06:01:19;;;;;;;26.97;14.20;;;;;;;0.19;81.19;100306.28;1798776;79;20986;-62
2020/12/14 06:03:47;;;;;;;28.73;15.37;;;;;;;0.22;81.09;100309.45;1797111;79;20961;-62
2020/12/14 06:06:15;;;;;;;27.73;15.28;;;;;;;0.19;80.96;100306.28;1767378;79;21658;-60
2020/12/14 06:08:49;;;;;;;32.30;16.07;;;;;;;0.20;81.10;100315.86;1785409;79;20978;-61
2020/12/14 06:11:18;;;;;;;33.38;15.68;;;;;;;0.19;81.17;100312.88;1781763;80;20959;-62
2020/12/14 06:13:56;;;;;;;22.25;13.00;;;;;;;0.22;81.14;100316.05;1784769;80;20990;-63
2020/12/14 06:16:26;;;;;;;22.67;12.28;;;;;;;0.23;81.00;100320.82;1782682;80;21567;-61
2020/12/14 06:18:56;;;;;;;25.65;13.38;;;;;;;0.22;80.88;100315.20;1784565;80;21558;-62
2020/12/14 06:21:47;;;;;;;27.30;13.43;;;;;;;0.22;80.92;100322.64;1784973;80;20982;-61
2020/12/14 06:24:23;;;;;;;28.77;13.65;;;;;;;0.20;80.97;100315.36;1784542;80;21534;-60
2020/12/14 06:26:50;;;;;;;29.35;13.85;;;;;;;0.21;81.05;100317.02;1784762;80;21565;-62
2020/12/14 06:29:32;;;;;;;22.22;11.53;;;;;;;0.20;81.00;100316.67;1755237;80;21073;-63
2020/12/14 06:32:00;;;;;;;24.02;13.10;;;;;;;0.19;81.07;100322.92;1780875;80;21357;-62
2020/12/14 06:34:37;;;;;;;22.77;12.37;;;;;;;0.22;81.12;100327.06;1784976;80;21111;-62
2020/12/14 06:37:04;;;;;;;25.85;12.70;;;;;;;0.26;81.09;100327.92;1783746;80;21108;-63
2020/12/14 06:39:37;;;;;;;24.57;13.15;;;;;;;0.30;80.93;100323.19;1784891;80;21053;-60
2020/12/14 06:42:14;;;;;;;26.62;13.43;;;;;;;0.30;80.89;100321.87;1784697;80;21195;-62
2020/12/14 06:44:50;;;;;;;26.93;15.30;;;;;;;0.33;80.95;100330.30;1784765;80;21381;-64
2020/12/14 06:47:18;;;;;;;25.77;15.48;;;;;;;0.36;80.87;100335.77;1784620;79;21136;-62
2020/12/14 06:49:47;;;;;;;22.90;13.83;;;;;;;0.37;80.74;100334.80;1780427;80;22084;-63
2020/12/14 06:52:35;;;;;;;28.12;16.02;;;;;;;0.36;80.77;100330.49;1784843;80;20978;-63
2020/12/14 06:55:03;;;;;;;20.85;12.63;;;;;;;0.38;80.66;100332.97;1784854;80;20978;-62
2020/12/14 06:57:37;;;;;;;17.40;10.48;;;;;;;0.39;80.67;100332.00;1784759;80;21199;-62
2020/12/14 07:00:06;;;;;;;22.22;12.70;;;;;;;0.45;80.67;100336.16;1784208;79;21203;-61
2020/12/14 07:02:40;;;;;;;28.15;15.25;;;;;;;0.52;80.42;100343.80;1784395;80;21140;-63
2020/12/14 07:05:32;;;;;;;28.12;15.80;;;;;;;0.54;80.31;100349.43;1781896;80;21196;-63
2020/12/14 07:08:00;;;;;;;28.07;13.50;;;;;;;0.54;80.21;100350.75;1783739;79;21005;-62
2020/12/14 07:10:29;;;;;;;23.45;13.15;;;;;;;0.52;80.25;100352.22;1784266;80;21348;-61
2020/12/14 07:12:58;;;;;;;24.27;13.15;;;;;;;0.55;80.18;100350.59;1784363;80;28594;-61
2020/12/14 07:15:32;;;;;;;31.52;17.42;;;;;;;0.58;80.09;100351.60;1780930;80;20998;-62
2020/12/14 07:18:11;;;;;;;32.15;17.55;;;;;;;0.56;79.99;100359.33;1784268;80;21037;-61
2020/12/14 07:20:54;;;;;;;21.80;11.93;;;;;;;0.51;80.12;100357.15;1784248;80;21163;-61
2020/12/14 07:23:22;;;;;;;25.95;14.05;;;;;;;0.51;80.06;100353.19;1784053;80;21369;-60
2020/12/14 07:25:49;;;;;;;25.40;14.53;;;;;;;0.52;80.09;100353.04;1783997;80;20954;-61
2020/12/14 07:28:18;;;;;;;27.70;14.80;;;;;;;0.58;80.10;100354.74;1784199;80;21077;-59
2020/12/14 07:30:45;;;;;;;27.00;15.85;;;;;;;0.61;80.09;100357.89;1753510;80;21116;-60
2020/12/14 07:33:14;;;;;;;23.52;12.13;;;;;;;0.67;79.88;100366.51;1784325;80;21168;-59
2020/12/14 07:35:41;;;;;;;22.42;13.38;;;;;;;0.72;79.90;100371.31;1784217;80;21327;-60
2020/12/14 07:38:11;;;;;;;34.18;14.58;;;;;;;0.78;79.67;100361.49;1784094;80;20938;-62
2020/12/14 07:40:47;;;;;;;35.70;19.45;;;;;;;0.86;79.50;100366.80;1827209;76;22796;-61
2020/12/14 07:43:19;;;;;;;24.30;13.78;;;;;;;0.81;79.47;100365.61;1797334;77;21559;-61
2020/12/14 07:45:47;;;;;;;26.30;15.18;;;;;;;0.75;79.21;100373.68;1800313;78;21347;-60
2020/12/14 07:48:17;;;;;;;32.30;18.47;;;;;;;0.65;79.29;100367.66;1795355;79;21615;-61
2020/12/14 07:50:45;;;;;;;29.57;16.40;;;;;;;0.56;79.56;100374.69;1804749;79;20894;-62
2020/12/14 07:53:15;;;;;;;31.25;17.77;;;;;;;0.50;79.74;100372.63;1798993;79;21681;-60
2020/12/14 07:55:43;;;;;;;34.43;18.67;;;;;;;0.48;79.90;100365.38;1796785;79;21022;-60
2020/12/14 07:58:11;;;;;;;38.50;21.35;;;;;;;0.55;80.00;100370.88;1796773;79;21375;-60
2020/12/14 08:00:38;;;;;;;32.95;19.00;;;;;;;0.63;80.00;100378.84;1800774;78;21140;-61
2020/12/14 08:03:06;;;;;;;29.67;15.65;;;;;;;0.73;79.95;100374.81;1799287;79;21155;-59
2020/12/14 08:05:34;;;;;;;33.55;17.27;;;;;;;0.78;79.69;100375.16;1739197;79;21567;-60
2020/12/14 08:08:04;;;;;;;26.77;14.20;;;;;;;0.81;79.61;100373.53;1801692;79;21095;-61
2020/12/14 08:10:34;;;;;;;23.70;12.73;;;;;;;0.83;79.40;100371.58;1796108;79;21404;-59
2020/12/14 08:13:10;;;;;;;24.40;13.13;;;;;;;0.84;79.46;100371.42;1796603;79;20966;-62
2020/12/14 08:15:41;;;;;;;25.82;14.87;;;;;;;0.87;79.21;100370.30;1795267;79;21031;-61
2020/12/14 08:18:11;;;;;;;25.80;12.75;;;;;;;0.82;79.17;100377.33;1766271;79;21141;-60
2020/12/14 08:20:42;;;;;;;24.05;12.43;;;;;;;0.80;79.15;100370.57;1792780;79;20940;-60
2020/12/14 08:23:21;;;;;;;25.30;13.83;;;;;;;0.78;79.12;100373.37;1797376;79;21455;-61
2020/12/14 08:25:50;;;;;;;26.00;14.68;;;;;;;0.76;79.16;100370.54;1798143;79;21019;-60
2020/12/14 08:28:33;;;;;;;20.80;12.58;;;;;;;0.79;79.33;100369.72;1796244;79;21017;-60
2020/12/14 08:31:06;;;;;;;22.00;12.60;;;;;;;0.85;79.39;100359.89;1798787;79;21566;-59
2020/12/14 08:33:33;;;;;;;26.73;15.08;;;;;;;0.96;79.11;100367.22;1789591;79;21105;-60
2020/12/14 08:36:08;;;;;;;28.38;16.23;;;;;;;0.95;78.95;100370.33;1751221;80;21197;-59
2020/12/14 08:38:35;;;;;;;30.75;15.63;;;;;;;0.96;78.95;100366.72;1783127;80;21081;-61
2020/12/14 08:41:05;;;;;;;29.37;16.93;;;;;;;0.97;78.96;100360.94;1780676;79;21186;-60
2020/12/14 08:43:35;;;;;;;31.73;15.32;;;;;;;0.97;78.94;100360.47;1778452;80;21188;-63
2020/12/14 08:46:14;;;;;;;24.00;14.70;;;;;;;1.02;78.85;100364.77;1824509;78;22655;-60
2020/12/14 08:48:53;;;;;;;26.50;16.55;;;;;;;0.96;78.87;100365.40;1794709;79;20923;-59
2020/12/14 08:51:34;;;;;;;28.90;16.40;;;;;;;0.99;78.84;100365.59;1799258;79;21410;-60
2020/12/14 08:54:13;;;;;;;28.87;16.27;;;;;;;0.99;78.80;100363.77;1801514;79;20938;-59
2020/12/14 08:56:41;;;;;;;26.05;14.65;;;;;;;0.96;78.77;100355.34;1800179;79;20993;-60
2020/12/14 08:59:16;;;;;;;30.85;17.23;;;;;;;0.95;78.84;100351.85;1799845;79;20919;-61
2020/12/14 09:04:40;;;;;;;34.57;20.20;;;;;;;0.99;78.70;100344.47;1809155;78;27990;-61
2020/12/14 09:07:07;;;;;;;24.25;13.80;;;;;;;1.02;78.81;100348.92;1792759;79;21291;-60
2020/12/14 09:09:38;;;;;;;26.97;15.55;;;;;;;1.08;78.53;100351.44;1780336;80;21379;-63
2020/12/14 09:12:12;;;;;;;30.75;16.40;;;;;;;1.08;78.58;100346.66;1781791;80;20947;-61
2020/12/14 09:14:40;;;;;;;29.87;15.60;;;;;;;1.10;78.47;100346.81;1782880;80;20982;-60
2020/12/14 09:17:18;;;;;;;42.25;21.23;;;;;;;1.09;78.41;100347.83;1781993;80;21057;-59
2020/12/14 09:19:51;;;;;;;41.05;19.15;;;;;;;1.09;78.46;100344.33;1784090;80;20946;-60
2020/12/14 09:22:22;;;;;;;43.25;20.62;;;;;;;1.13;78.33;100350.97;1783432;80;21357;-61
2020/12/14 09:24:50;;;;;;;42.05;21.77;;;;;;;1.10;78.25;100349.45;1781702;80;21038;-60
2020/12/14 09:27:18;;;;;;;36.88;20.75;;;;;;;1.10;78.32;100348.64;1783998;80;21014;-59
2020/12/14 09:29:46;;;;;;;32.53;17.82;;;;;;;1.12;78.31;100353.26;1780901;80;21013;-60
2020/12/14 09:32:13;;;;;;;36.48;16.67;;;;;;;1.13;78.19;100350.46;1780577;80;21140;-60
2020/12/14 09:34:41;;;;;;;32.25;17.95;;;;;;;1.12;78.17;100351.94;1783607;80;22233;-62
2020/12/14 09:37:09;;;;;;;33.60;18.07;;;;;;;1.14;78.19;100355.27;1783461;80;21033;-62
2020/12/14 09:39:39;;;;;;;32.80;18.25;;;;;;;1.11;77.99;100353.77;1783814;80;21127;-60
2020/12/14 09:42:06;;;;;;;28.92;14.98;;;;;;;1.04;78.10;100356.69;1781368;80;21163;-62
2020/12/14 09:44:34;;;;;;;27.25;15.18;;;;;;;1.01;78.14;100347.27;1780559;80;21037;-60
2020/12/14 09:47:04;;;;;;;37.15;21.93;;;;;;;0.99;78.22;100347.10;1783476;80;21238;-60
2020/12/14 09:49:32;;;;;;;38.28;19.45;;;;;;;1.01;78.37;100352.55;1772956;80;21282;-61
2020/12/14 09:52:00;;;;;;;35.08;19.85;;;;;;;1.05;78.36;100342.52;1784269;80;20993;-61
2020/12/14 09:54:28;;;;;;;32.60;18.73;;;;;;;1.06;78.20;100346.82;1783815;80;21024;-61
2020/12/14 09:56:56;;;;;;;31.50;17.42;;;;;;;1.01;78.26;100340.66;1783539;80;21156;-62
2020/12/14 09:59:24;;;;;;;32.28;18.95;;;;;;;1.02;78.30;100348.92;1783676;80;21614;-61
2020/12/14 10:01:52;;;;;;;34.43;19.12;;;;;;;1.06;78.43;100344.18;1783354;80;21100;-63
2020/12/14 10:04:20;;;;;;;35.35;19.15;;;;;;;1.18;78.39;100352.66;1775521;80;21124;-63
2020/12/14 10:10:24;;;;;;;38.35;19.87;;;;;;;1.21;77.85;100358.95;1769777;80;22151;-59
2020/12/14 10:16:30;;;;;;;38.98;19.95;;;;;;;1.09;78.02;100362.34;1770614;81;21152;-62
2020/12/14 10:22:37;;;;;;;39.35;22.10;;;;;;;1.12;77.83;100363.35;1772692;81;21133;-61
2020/12/14 10:28:43;;;;;;;42.23;22.58;;;;;;;1.10;78.13;100361.84;1772958;81;21041;-61
2020/12/14 10:34:48;;;;;;;30.95;16.52;;;;;;;1.02;78.21;100352.89;1771033;81;20992;-60
2020/12/14 10:40:54;;;;;;;38.73;20.05;;;;;;;0.90;78.44;100354.61;1766728;81;21618;-60
2020/12/14 10:47:04;;;;;;;41.95;19.25;;;;;;;0.96;78.61;100348.73;1772583;81;20983;-61
2020/12/14 10:53:09;;;;;;;34.37;18.30;;;;;;;1.08;78.55;100339.55;1771822;81;20991;-64
2020/12/14 10:59:16;;;;;;;37.23;17.87;;;;;;;1.25;78.32;100336.99;1770034;81;20990;-60
2020/12/14 11:08:48;;;;;;;36.23;19.07;;;;;;;1.30;77.67;100349.25;1772811;81;21603;-62
2020/12/14 11:14:54;;;;;;;39.85;19.45;;;;;;;1.11;77.90;100341.87;1768773;81;21057;-62
2020/12/14 11:20:59;;;;;;;43.10;21.05;;;;;;;1.25;78.09;100351.02;1771738;81;20931;-62
2020/12/14 11:27:04;;;;;;;43.50;20.20;;;;;;;1.18;77.81;100353.98;1772321;80;21049;-62
2020/12/14 11:32:58;;;;;;;44.73;22.62;;;;;;;0.84;78.40;100368.78;1771939;81;20947;-62
2020/12/14 11:39:05;;;;;;;45.60;23.98;;;;;;;0.99;78.80;100350.56;1769789;81;21334;-60
2020/12/14 11:45:10;;;;;;;51.20;26.13;;;;;;;1.08;78.58;100345.34;1771875;81;20946;-62
2020/12/14 11:51:16;;;;;;;50.28;23.27;;;;;;;0.88;78.42;100353.45;1772269;81;21061;-60
2020/12/14 11:57:21;;;;;;;58.98;27.27;;;;;;;0.86;78.90;100345.69;1767676;81;21208;-62
2020/12/14 12:03:14;;;;;;;36.83;19.05;;;;;;;0.92;78.84;100353.98;1770032;81;21602;-62
2020/12/14 12:09:08;;;;;;;51.90;23.80;;;;;;;1.05;78.69;100360.49;1773716;79;21087;-61
2020/12/14 12:15:15;;;;;;;37.80;19.75;;;;;;;1.02;78.61;100364.77;1780552;80;21587;-63
2020/12/14 12:21:21;;;;;;;38.05;19.35;;;;;;;1.14;78.50;100366.66;1777471;80;21690;-60
2020/12/14 12:27:27;;;;;;;34.95;17.92;;;;;;;1.25;78.07;100376.11;1780002;80;21089;-60
2020/12/14 12:33:33;;;;;;;32.75;16.32;;;;;;;1.25;78.13;100374.79;1779468;80;21523;-63
2020/12/14 12:39:39;;;;;;;40.73;19.35;;;;;;;1.08;78.12;100370.42;1775985;80;21175;-62
2020/12/14 12:45:45;;;;;;;54.05;24.35;;;;;;;0.93;78.24;100376.74;1777999;80;21107;-62
2020/12/14 12:51:52;;;;;;;44.88;20.52;;;;;;;0.85;78.60;100382.33;1778277;80;21294;-61
2020/12/14 12:57:58;;;;;;;53.42;21.60;;;;;;;0.78;78.87;100381.28;1778136;80;20938;-61
2020/12/14 13:03:50;;;;;;;47.70;21.23;;;;;;;0.94;78.87;100385.01;1780396;80;21171;-60
2020/12/14 13:13:34;;;;;;;49.20;22.42;;;;;;;0.87;78.91;100395.38;1794704;80;21020;-62
2020/12/14 13:19:40;;;;;;;40.58;18.73;;;;;;;0.86;79.00;100398.98;1790464;80;20950;-64
2020/12/14 13:25:45;;;;;;;38.15;18.10;;;;;;;1.01;78.83;100396.61;1794633;80;20985;-61
2020/12/14 13:31:51;;;;;;;35.00;16.50;;;;;;;1.32;78.59;100394.31;1795065;80;21300;-64
2020/12/14 13:37:57;;;;;;;45.30;20.10;;;;;;;1.32;78.18;100398.27;1794529;80;20977;-60
2020/12/14 13:44:03;;;;;;;47.15;19.95;;;;;;;1.53;78.09;100397.05;1792943;80;21009;-62